Time;durP1;ratioP1;P1;durP2;ratioP2;P2;SDS_P1;SDS_P2;PMS_P1;PMS_P2;Temp;Humidity;BMP_temperature;BMP_pressure;BME280_temperature;BME280_humidity;BME280_pressure;Samples;Min_cycle;Max_cycle;Signal;HPM_P1;HPM_P2
2024/02/08 00:02:21;;;;;;;4.60;3.10;;;;;;;10.78;50.46;98303.31;108100;1253;60316;-66
2024/02/08 00:04:49;;;;;;;4.70;3.00;;;;;;;10.49;51.01;98308.75;108083;1253;60245;-66
2024/02/08 00:07:17;;;;;;;3.90;2.70;;;;;;;10.65;50.61;98318.20;108069;1253;70366;-66
2024/02/08 00:09:43;;;;;;;4.10;2.80;;;;;;;10.34;51.13;98320.88;108098;1253;72758;-67
2024/02/08 00:12:11;;;;;;;7.60;3.50;;;;;;;10.22;51.64;98327.11;108077;1253;59144;-65
2024/02/08 00:14:38;;;;;;;5.60;3.20;;;;;;;10.19;51.61;98330.80;108157;1253;60342;-67
2024/02/08 00:17:05;;;;;;;5.80;3.50;;;;;;;9.98;52.26;98334.05;108117;1253;73948;-66
2024/02/08 00:19:32;;;;;;;5.90;3.60;;;;;;;10.65;51.01;98332.39;108036;1252;70789;-67
2024/02/08 00:21:58;;;;;;;6.70;3.60;;;;;;;10.77;50.63;98332.14;108042;1255;71678;-66
2024/02/08 00:24:25;;;;;;;5.60;3.60;;;;;;;10.76;50.53;98339.23;108070;1253;59086;-66
2024/02/08 00:26:52;;;;;;;6.50;3.80;;;;;;;10.80;50.43;98350.74;108069;1253;60645;-66
2024/02/08 00:29:18;;;;;;;5.30;3.70;;;;;;;11.03;49.97;98350.98;108081;1256;73726;-66
2024/02/08 00:31:45;;;;;;;7.10;3.80;;;;;;;10.92;50.24;98356.08;108193;1253;60366;-66
2024/02/08 00:34:12;;;;;;;5.30;3.70;;;;;;;10.99;50.12;98365.95;108149;1253;72745;-67
2024/02/08 00:36:38;;;;;;;6.10;3.40;;;;;;;10.82;50.46;98363.27;108107;1253;60271;-67
2024/02/08 00:39:06;;;;;;;5.30;3.70;;;;;;;10.83;50.33;98365.64;108027;1253;60403;-67
2024/02/08 00:41:34;;;;;;;3.80;2.90;;;;;;;10.85;50.44;98367.44;108036;1254;73849;-67
2024/02/08 00:44:00;;;;;;;5.60;3.50;;;;;;;11.19;49.71;98372.55;108165;1253;70161;-66
2024/02/08 00:46:27;;;;;;;5.30;3.60;;;;;;;11.30;49.44;98375.13;108059;1253;73101;-66
2024/02/08 00:48:54;;;;;;;9.00;3.50;;;;;;;11.02;50.04;98380.23;108032;1253;60619;-66
2024/02/08 00:51:21;;;;;;;5.90;3.80;;;;;;;11.20;49.61;98372.66;108040;1253;60405;-65
2024/02/08 00:53:48;;;;;;;5.00;3.00;;;;;;;11.09;49.86;98375.29;108200;1253;73732;-65
2024/02/08 00:56:15;;;;;;;6.60;3.50;;;;;;;10.97;50.14;98375.97;108165;1253;69178;-64
2024/02/08 00:58:42;;;;;;;6.60;2.90;;;;;;;10.81;50.45;98379.11;108151;1254;72602;-66
2024/02/08 01:01:09;;;;;;;4.90;2.60;;;;;;;10.63;50.90;98378.16;108148;1253;60960;-66
2024/02/08 01:03:35;;;;;;;5.80;3.40;;;;;;;10.28;51.60;98381.27;108079;1253;60336;-65
2024/02/08 01:06:02;;;;;;;5.50;2.90;;;;;;;10.24;51.96;98381.35;108119;1253;74357;-66
2024/02/08 01:08:29;;;;;;;4.40;3.00;;;;;;;10.36;51.77;98387.81;108165;1253;70319;-65
2024/02/08 01:10:56;;;;;;;6.00;3.70;;;;;;;10.46;51.62;98387.73;108155;1253;73511;-66
2024/02/08 01:13:24;;;;;;;5.40;3.60;;;;;;;10.44;51.51;98386.43;108101;1253;61152;-66
2024/02/08 01:15:50;;;;;;;4.70;3.40;;;;;;;10.59;51.13;98382.34;108143;1252;61023;-66
2024/02/08 01:18:17;;;;;;;4.60;3.40;;;;;;;10.52;51.23;98394.66;108191;1253;73502;-66
2024/02/08 01:20:44;;;;;;;6.70;3.50;;;;;;;10.63;50.97;98398.90;108215;1253;70153;-65
2024/02/08 01:23:11;;;;;;;5.70;3.50;;;;;;;10.60;50.99;98411.86;108182;1256;71702;-67
2024/02/08 01:25:41;;;;;;;6.60;3.70;;;;;;;10.19;51.98;98419.23;108174;1253;61373;-64
2024/02/08 01:28:08;;;;;;;5.80;3.50;;;;;;;10.32;51.63;98419.15;108185;1253;59031;-67
2024/02/08 01:30:38;;;;;;;6.80;3.50;;;;;;;10.86;50.57;98418.09;108137;1253;73663;-66
2024/02/08 01:33:14;;;;;;;4.10;2.90;;;;;;;10.80;50.58;98423.94;108070;1254;69412;-67
2024/02/08 01:35:41;;;;;;;4.40;3.60;;;;;;;10.81;50.54;98428.66;108047;1254;70315;-66
2024/02/08 01:38:08;;;;;;;4.80;3.20;;;;;;;10.87;50.31;98431.02;108155;1254;60955;-66
2024/02/08 01:40:35;;;;;;;5.60;3.80;;;;;;;10.87;50.37;98436.50;108094;1254;60464;-65
2024/02/08 01:43:01;;;;;;;6.60;4.00;;;;;;;11.01;49.89;98446.45;108023;1254;72046;-66
2024/02/08 01:45:40;;;;;;;7.50;4.60;;;;;;;10.89;50.17;98450.89;108074;1254;70727;-66
2024/02/08 01:48:15;;;;;;;7.00;4.10;;;;;;;10.77;50.47;98445.91;108071;1254;72410;-67
2024/02/08 01:50:47;;;;;;;5.30;3.30;;;;;;;10.97;49.99;98444.27;108082;1254;61102;-66
2024/02/08 01:53:15;;;;;;;4.00;3.20;;;;;;;10.94;50.04;98456.23;108114;1254;60218;-66
2024/02/08 01:55:49;;;;;;;5.10;3.30;;;;;;;10.97;49.96;98451.08;108114;1254;73869;-67
2024/02/08 01:58:16;;;;;;;4.80;2.90;;;;;;;11.11;49.63;98447.91;108048;1254;70296;-66
2024/02/08 02:00:48;;;;;;;4.70;2.90;;;;;;;11.20;49.39;98448.93;108015;1254;72754;-66
2024/02/08 02:03:16;;;;;;;3.90;2.80;;;;;;;11.21;49.26;98450.63;107925;1254;61047;-66
2024/02/08 02:05:46;;;;;;;2.90;2.40;;;;;;;11.08;49.43;98464.23;108196;1254;60454;-65
2024/02/08 02:08:16;;;;;;;6.40;2.80;;;;;;;11.08;49.44;98464.05;108030;1257;73681;-66
2024/02/08 02:10:46;;;;;;;4.30;2.50;;;;;;;11.16;49.17;98459.02;108031;1254;70532;-66
2024/02/08 02:13:14;;;;;;;5.60;2.70;;;;;;;10.99;49.47;98463.97;108127;1254;72290;-66
2024/02/08 02:15:40;;;;;;;3.60;2.50;;;;;;;10.93;49.49;98469.43;108051;1254;61140;-67
2024/02/08 02:18:07;;;;;;;5.00;2.00;;;;;;;10.73;50.00;98477.25;108109;1254;60108;-65
2024/02/08 02:20:34;;;;;;;2.70;2.10;;;;;;;10.88;49.67;98478.89;108151;1254;73658;-65
2024/02/08 02:23:01;;;;;;;3.20;2.50;;;;;;;10.98;49.53;98480.73;108044;1254;70813;-66
2024/02/08 02:25:28;;;;;;;4.00;2.40;;;;;;;11.03;49.35;98471.82;107879;1254;72588;-65
2024/02/08 02:27:55;;;;;;;3.10;2.10;;;;;;;11.22;48.98;98465.30;108017;1254;60973;-66
2024/02/08 02:30:22;;;;;;;6.20;2.60;;;;;;;11.16;48.80;98468.15;108072;1254;60319;-67
2024/02/08 02:32:52;;;;;;;3.80;2.50;;;;;;;11.20;48.72;98475.83;108066;1253;72308;-66
2024/02/08 02:35:18;;;;;;;3.20;2.20;;;;;;;11.17;48.70;98479.48;108281;1252;69235;-66
2024/02/08 02:37:45;;;;;;;4.00;2.10;;;;;;;11.18;48.64;98474.70;108244;1252;71213;-66
2024/02/08 02:40:21;;;;;;;3.70;2.30;;;;;;;11.27;48.40;98473.95;108139;1253;61156;-66
2024/02/08 02:42:52;;;;;;;4.20;2.20;;;;;;;11.37;48.15;98482.02;108198;1253;60321;-65
2024/02/08 02:45:28;;;;;;;4.30;2.40;;;;;;;11.17;48.28;98487.89;108299;1255;73784;-66
2024/02/08 02:47:56;;;;;;;2.80;2.20;;;;;;;11.13;48.35;98488.85;108244;1252;70122;-67
2024/02/08 02:50:23;;;;;;;4.40;2.30;;;;;;;11.21;47.98;98497.63;108269;1253;71351;-65
2024/02/08 02:52:50;;;;;;;3.20;2.20;;;;;;;11.27;47.72;98505.70;108326;1252;60859;-66
2024/02/08 02:55:17;;;;;;;5.30;2.40;;;;;;;11.21;47.81;98513.50;108280;1255;60341;-65
2024/02/08 02:57:44;;;;;;;2.70;1.80;;;;;;;11.26;47.70;98518.40;108255;1252;74002;-66
2024/02/08 03:00:33;;;;;;;3.30;2.30;;;;;;;11.19;47.77;98518.36;108137;1253;69283;-67
2024/02/08 03:03:06;;;;;;;3.30;2.00;;;;;;;11.06;47.84;98520.27;108355;1253;72939;-66
2024/02/08 03:05:45;;;;;;;4.00;2.40;;;;;;;11.02;47.68;98517.70;108378;1251;59594;-67
2024/02/08 03:08:12;;;;;;;6.20;2.40;;;;;;;11.09;47.45;98521.96;108449;1251;60107;-67
2024/02/08 03:10:39;;;;;;;3.70;2.30;;;;;;;11.04;47.37;98521.80;108270;1251;73583;-66
2024/02/08 03:13:07;;;;;;;3.20;2.30;;;;;;;11.05;47.20;98522.94;108364;1251;68050;-64
2024/02/08 03:15:36;;;;;;;3.70;2.30;;;;;;;11.13;46.98;98521.73;108327;1251;73296;-66
2024/02/08 03:18:04;;;;;;;4.40;2.40;;;;;;;11.10;46.89;98522.79;108469;1251;61084;-66
2024/02/08 03:20:30;;;;;;;5.00;2.60;;;;;;;11.11;46.72;98531.14;108340;1251;60632;-67
2024/02/08 03:22:57;;;;;;;4.20;2.90;;;;;;;11.15;46.59;98537.94;108364;1251;73674;-66
2024/02/08 03:25:30;;;;;;;3.40;2.20;;;;;;;10.91;46.89;98541.05;108327;1251;70325;-67
2024/02/08 03:27:57;;;;;;;3.10;2.20;;;;;;;10.82;47.11;98546.70;108311;1251;72319;-66
2024/02/08 03:30:30;;;;;;;3.60;2.40;;;;;;;10.71;47.21;98554.91;108250;1251;61161;-63
2024/02/08 03:32:57;;;;;;;3.90;2.00;;;;;;;10.69;47.32;98558.36;108286;1252;60159;-64
2024/02/08 03:35:27;;;;;;;5.40;2.90;;;;;;;10.53;47.63;98560.96;108310;1253;74067;-65
2024/02/08 03:37:54;;;;;;;3.80;1.80;;;;;;;10.54;47.55;98569.50;108326;1253;70471;-66
2024/02/08 03:40:22;;;;;;;2.60;1.80;;;;;;;10.52;47.53;98571.73;108222;1253;71443;-66
2024/02/08 03:42:49;;;;;;;3.30;2.20;;;;;;;10.64;47.08;98579.80;108267;1254;61108;-67
2024/02/08 03:45:23;;;;;;;3.40;2.00;;;;;;;10.49;47.26;98578.98;108242;1253;60206;-67
2024/02/08 03:47:50;;;;;;;3.80;2.00;;;;;;;10.46;47.31;98583.16;108272;1253;72252;-65
2024/02/08 03:50:24;;;;;;;2.00;1.70;;;;;;;10.38;47.30;98593.11;108323;1252;69149;-66
2024/02/08 03:52:51;;;;;;;3.90;2.20;;;;;;;10.45;47.06;98595.85;108173;1257;73082;-63
2024/02/08 03:55:26;;;;;;;2.80;1.90;;;;;;;10.51;46.99;98590.23;108258;1252;61232;-64
2024/02/08 03:57:56;;;;;;;1.70;1.60;;;;;;;10.49;46.88;98591.39;108287;1252;60316;-64
2024/02/08 04:00:28;;;;;;;3.50;2.00;;;;;;;10.42;47.03;98596.05;108320;1253;74233;-64
2024/02/08 04:02:58;;;;;;;5.10;1.90;;;;;;;10.33;47.03;98609.23;108317;1253;68797;-64
2024/02/08 04:05:42;;;;;;;2.70;1.60;;;;;;;10.30;47.02;98609.40;108290;1252;72373;-64
2024/02/08 04:08:22;;;;;;;2.80;1.90;;;;;;;10.16;47.33;98612.66;108253;1253;61003;-67
2024/02/08 04:54:43;;;;;;;2.80;1.80;;;;;;;10.15;46.34;98633.95;108210;1253;73504;-67
2024/02/08 04:57:10;;;;;;;2.70;1.60;;;;;;;10.22;46.18;98640.04;108084;1253;70848;-66
2024/02/08 04:59:41;;;;;;;4.20;2.20;;;;;;;10.10;46.58;98647.01;108082;1253;73328;-65
2024/02/08 05:02:09;;;;;;;3.10;1.60;;;;;;;10.04;46.74;98655.30;108164;1253;60336;-66
2024/02/08 05:04:35;;;;;;;2.30;1.80;;;;;;;10.03;46.96;98657.44;108089;1253;60660;-67
2024/02/08 05:07:10;;;;;;;4.00;2.10;;;;;;;10.18;46.70;98661.15;108238;1253;73995;-66
2024/02/08 05:09:39;;;;;;;4.80;2.50;;;;;;;10.21;46.79;98670.23;108186;1255;70206;-67
2024/02/08 05:12:07;;;;;;;4.50;2.60;;;;;;;10.15;46.95;98676.90;108104;1253;71566;-67
2024/02/08 05:14:38;;;;;;;3.20;2.30;;;;;;;10.01;47.22;98681.41;108173;1253;61199;-66
2024/02/08 05:17:08;;;;;;;3.80;2.50;;;;;;;9.98;47.35;98685.09;108212;1253;60181;-67
2024/02/08 05:19:35;;;;;;;2.70;2.00;;;;;;;9.99;47.63;98701.34;108121;1257;73929;-66
2024/02/08 05:22:02;;;;;;;3.20;1.80;;;;;;;10.03;47.22;98711.09;108160;1253;70136;-66
2024/02/08 05:24:30;;;;;;;1.80;1.50;;;;;;;9.93;47.05;98714.46;108245;1253;72570;-66
2024/02/08 05:26:57;;;;;;;1.80;1.30;;;;;;;9.89;46.70;98722.23;108113;1253;60982;-66
2024/02/08 05:29:24;;;;;;;1.30;1.10;;;;;;;9.72;46.69;98722.66;108147;1253;60404;-67
2024/02/08 05:31:51;;;;;;;1.20;1.10;;;;;;;9.71;46.56;98728.66;108093;1253;73856;-67
2024/02/08 05:34:18;;;;;;;1.90;1.30;;;;;;;9.47;46.97;98728.41;108292;1255;70712;-66
2024/02/08 05:36:46;;;;;;;1.60;1.20;;;;;;;9.25;47.48;98737.16;108234;1252;71649;-66
2024/02/08 05:39:13;;;;;;;2.30;1.30;;;;;;;9.32;47.49;98739.55;108125;1253;60348;-65
2024/02/08 05:41:44;;;;;;;1.10;1.00;;;;;;;9.24;47.59;98741.58;108203;1253;60229;-66
2024/02/08 05:44:12;;;;;;;3.80;3.10;;;;;;;9.18;47.83;98753.09;108138;1253;73660;-66
2024/02/08 05:46:39;;;;;;;2.90;2.10;;;;;;;9.29;47.80;98755.12;108087;1253;70113;-66
2024/02/08 05:49:14;;;;;;;1.90;1.50;;;;;;;9.29;47.77;98757.05;108087;1253;72472;-67
2024/02/08 05:51:46;;;;;;;2.50;1.20;;;;;;;9.24;47.99;98760.13;108065;1257;60987;-66
2024/02/08 05:54:20;;;;;;;1.90;1.10;;;;;;;9.25;48.02;98763.58;108138;1253;60333;-66
2024/02/08 05:56:47;;;;;;;1.70;1.20;;;;;;;9.33;47.92;98768.06;108110;1255;73690;-67
2024/02/08 05:59:17;;;;;;;1.00;0.90;;;;;;;9.29;48.10;98771.95;108045;1253;70122;-66
2024/02/08 06:01:46;;;;;;;1.10;0.90;;;;;;;9.24;48.26;98774.81;108094;1253;72684;-66
2024/02/08 06:04:22;;;;;;;2.00;1.20;;;;;;;9.30;48.32;98781.88;108119;1253;61544;-65
2024/02/08 06:06:58;;;;;;;0.90;0.90;;;;;;;9.14;48.60;98788.14;108103;1253;60105;-66
2024/02/08 06:12:16;;;;;;;1.40;1.20;;;;;;;9.38;48.12;98798.23;108153;1253;70183;-66
2024/02/08 06:14:43;;;;;;;1.40;1.30;;;;;;;9.30;48.21;98803.92;107987;1257;153713;-65
2024/02/08 06:17:57;;;;;;;1.40;1.30;;;;;;;6.88;54.04;98815.86;104969;1289;600899;-65
2024/02/08 06:20:33;;;;;;;1.70;1.10;;;;;;;7.97;51.78;98817.05;107365;1264;61018;-66
2024/02/08 06:23:23;;;;;;;1.70;1.00;;;;;;;8.23;51.31;98821.22;107367;1263;60602;-65
2024/02/08 06:28:41;;;;;;;3.10;1.20;;;;;;;8.77;50.72;98816.66;107380;1263;68973;-66
2024/02/08 06:31:14;;;;;;;1.30;1.20;;;;;;;8.78;50.56;98818.70;107385;1264;110247;-67
2024/02/08 06:34:47;;;;;;;1.50;1.20;;;;;;;8.91;50.11;98826.11;107488;1260;61666;-66
2024/02/08 06:36:58;;;;;;;2.20;1.20;;;;;;;8.97;49.56;98832.10;107385;1260;61558;-65
2024/02/08 06:39:33;;;;;;;2.40;1.00;;;;;;;9.21;48.98;98831.57;107411;1261;71041;-66
2024/02/08 06:45:24;;;;;;;1.60;1.20;;;;;;;9.06;48.77;98841.45;107438;1260;71654;-66
2024/02/08 07:38:09;;;;;;;2.00;1.60;;;;;;;9.36;45.80;98904.00;107598;1260;69631;-67
2024/02/08 07:40:36;;;;;;;3.70;1.60;;;;;;;9.24;45.83;98905.13;107878;1254;72454;-67
2024/02/08 07:45:54;;;;;;;2.30;1.70;;;;;;;9.16;45.52;98905.55;108069;1254;59551;-67
2024/02/08 07:48:38;;;;;;;5.70;1.80;;;;;;;9.21;45.27;98909.98;108084;1253;71783;-67
2024/02/08 07:51:07;;;;;;;3.10;2.00;;;;;;;9.26;45.01;98918.89;108073;1253;69239;-68
2024/02/08 07:53:45;;;;;;;3.20;1.90;;;;;;;9.33;44.73;98920.80;108118;1254;73673;-67
2024/02/08 07:58:48;;;;;;;3.80;2.30;;;;;;;9.41;43.34;98928.63;108052;1253;60098;-67
2024/02/08 08:01:17;;;;;;;3.00;1.90;;;;;;;9.52;43.14;98927.55;108157;1254;73028;-66
2024/02/08 08:03:45;;;;;;;3.10;1.90;;;;;;;9.77;42.52;98928.84;108062;1254;70474;-66
2024/02/08 08:06:15;;;;;;;4.10;2.10;;;;;;;9.92;41.70;98929.31;108066;1254;73499;-65
2024/02/08 08:08:43;;;;;;;2.80;2.10;;;;;;;9.99;41.51;98937.00;108095;1254;59612;-67
2024/02/08 08:11:15;;;;;;;3.70;2.40;;;;;;;10.23;41.60;98937.27;108150;1258;60024;-67
2024/02/08 08:19:19;;;;;;;4.60;2.30;;;;;;;10.52;39.62;98961.30;107948;1253;72669;-66
2024/02/08 08:24:42;;;;;;;2.90;1.90;;;;;;;10.80;39.20;98965.73;108203;1254;59936;-67
2024/02/08 08:27:32;;;;;;;3.80;2.80;;;;;;;11.27;38.90;98967.95;108265;1252;71808;-67
2024/02/08 08:30:03;;;;;;;3.60;2.20;;;;;;;12.05;38.37;98970.17;108254;1253;70329;-66
2024/02/08 08:38:13;;;;;;;2.40;1.70;;;;;;;14.12;34.86;98956.77;108387;1251;59972;-66
2024/02/08 08:40:41;;;;;;;3.10;1.70;;;;;;;15.20;34.25;98956.02;108416;1251;73453;-67
2024/02/08 08:43:24;;;;;;;3.20;2.10;;;;;;;15.74;32.46;98956.61;108300;1251;70645;-67
2024/02/08 08:46:09;;;;;;;3.20;1.70;;;;;;;15.79;31.56;98966.13;108322;1251;71900;-67
2024/02/08 08:48:37;;;;;;;2.90;2.00;;;;;;;15.53;31.13;98974.44;108286;1253;60155;-67
2024/02/08 08:51:10;;;;;;;3.50;2.20;;;;;;;14.94;31.48;98979.36;108387;1251;60012;-67
2024/02/08 08:53:56;;;;;;;2.80;2.10;;;;;;;14.36;31.87;98979.23;108307;1251;73631;-67
2024/02/08 08:56:28;;;;;;;3.30;2.00;;;;;;;13.78;32.10;98986.30;108283;1251;72708;-67
2024/02/08 08:58:58;;;;;;;2.90;1.90;;;;;;;13.50;33.23;99000.17;108176;1251;71365;-67
2024/02/08 09:01:27;;;;;;;2.50;1.80;;;;;;;13.64;33.50;98999.39;108277;1251;59607;-67
2024/02/08 09:04:25;;;;;;;3.70;2.20;;;;;;;13.93;33.73;98993.02;108355;1253;62271;-67
2024/02/08 09:06:54;;;;;;;3.20;2.20;;;;;;;14.31;33.30;98988.25;108306;1251;73986;-66
2024/02/08 09:10:08;;;;;;;3.00;2.10;;;;;;;14.44;32.67;98993.33;108290;1256;68607;-67
2024/02/08 09:12:09;;;;;;;4.30;2.40;;;;;;;14.62;32.37;98987.86;108164;1251;72987;-67
2024/02/08 09:14:48;;;;;;;4.50;2.30;;;;;;;14.79;32.41;98989.82;108264;1256;59774;-67
2024/02/08 09:17:25;;;;;;;3.50;1.90;;;;;;;14.95;31.81;98987.38;108274;1251;59499;-68
2024/02/08 09:19:59;;;;;;;2.80;2.00;;;;;;;14.91;31.52;98986.88;108146;1253;71259;-67
2024/02/08 09:22:31;;;;;;;4.50;2.20;;;;;;;14.88;31.06;98993.54;108229;1251;69481;-67
2024/02/08 09:25:10;;;;;;;2.60;1.80;;;;;;;14.84;31.35;98990.48;108312;1253;72876;-68
2024/02/08 09:28:05;;;;;;;3.30;2.00;;;;;;;14.98;31.23;98985.95;108305;1251;61255;-66
2024/02/08 09:30:40;;;;;;;2.50;1.80;;;;;;;14.91;31.13;98979.57;108339;1251;59725;-68
2024/02/08 09:33:29;;;;;;;2.70;2.00;;;;;;;14.97;30.65;98977.55;108297;1254;75243;-68
2024/02/08 09:36:01;;;;;;;3.10;2.00;;;;;;;15.18;30.29;98985.19;108198;1253;69310;-67
2024/02/08 09:38:42;;;;;;;3.90;2.40;;;;;;;15.59;30.48;98980.71;108253;1253;71715;-65
2024/02/08 09:41:15;;;;;;;4.20;2.00;;;;;;;15.98;29.67;98979.52;108107;1254;59421;-68
2024/02/08 09:43:47;;;;;;;4.40;2.00;;;;;;;16.41;29.74;98984.26;108204;1253;59615;-69
2024/02/08 09:49:18;;;;;;;3.00;2.00;;;;;;;17.66;27.47;98981.02;108173;1253;70520;-67
2024/02/08 09:51:53;;;;;;;2.30;1.90;;;;;;;18.02;27.23;98989.30;108180;1254;71925;-68
2024/02/08 09:54:27;;;;;;;2.30;1.80;;;;;;;18.29;26.81;98993.79;108203;1253;59480;-67
2024/02/08 09:57:02;;;;;;;3.90;2.10;;;;;;;18.38;26.20;98994.77;108311;1251;59919;-67
2024/02/08 10:02:32;;;;;;;2.70;1.90;;;;;;;18.83;26.65;98991.88;108303;1256;71438;-67
2024/02/08 10:05:19;;;;;;;2.40;1.50;;;;;;;19.08;25.98;98986.61;108149;1254;71799;-67
2024/02/08 10:08:05;;;;;;;3.00;2.00;;;;;;;19.47;25.74;98991.82;108226;1257;59493;-68
2024/02/08 10:13:30;;;;;;;3.00;2.00;;;;;;;19.89;24.43;98989.88;107809;1253;74982;-68
2024/02/08 10:16:03;;;;;;;2.30;1.90;;;;;;;19.83;24.37;98998.58;108185;1253;69215;-67
2024/02/08 10:18:37;;;;;;;2.40;1.90;;;;;;;19.80;24.76;99000.51;108211;1253;72858;-69
2024/02/08 10:21:12;;;;;;;1.90;1.60;;;;;;;19.74;24.17;99006.94;108149;1253;59626;-66
2024/02/08 10:23:48;;;;;;;2.30;1.70;;;;;;;19.76;24.60;99012.30;108169;1252;60440;-67
2024/02/08 10:26:26;;;;;;;3.20;1.90;;;;;;;19.65;24.46;99017.17;108218;1254;75477;-66
2024/02/08 10:28:55;;;;;;;2.60;1.90;;;;;;;19.53;24.44;99019.02;108150;1253;70725;-66
2024/02/08 10:31:24;;;;;;;2.50;1.60;;;;;;;19.28;24.80;99020.91;108230;1254;74921;-66
2024/02/08 10:34:08;;;;;;;1.90;1.70;;;;;;;18.83;24.45;99017.86;108271;1254;60045;-67
2024/02/08 10:36:44;;;;;;;3.40;2.40;;;;;;;18.35;25.03;99028.05;108245;1255;60238;-65
2024/02/08 10:39:25;;;;;;;2.80;2.20;;;;;;;18.10;25.64;99031.96;108245;1251;73855;-67
2024/02/08 10:44:28;;;;;;;4.50;2.50;;;;;;;17.74;25.77;99031.98;108197;1251;74990;-67
2024/02/08 10:46:57;;;;;;;2.90;2.20;;;;;;;17.38;26.22;99030.38;108344;1251;60280;-68
2024/02/08 10:49:25;;;;;;;2.40;1.90;;;;;;;16.90;26.51;99032.36;108249;1251;60316;-68
2024/02/08 10:52:00;;;;;;;3.30;2.20;;;;;;;16.48;27.04;99026.94;108159;1251;74334;-66
2024/02/08 10:54:42;;;;;;;4.70;1.70;;;;;;;16.04;27.59;99031.26;108324;1251;69225;-67
2024/02/08 10:57:39;;;;;;;3.20;2.10;;;;;;;15.82;27.88;99035.61;108191;1251;74916;-66
2024/02/08 10:59:59;;;;;;;3.30;2.20;;;;;;;15.79;28.19;99035.85;108444;1251;60410;-66
2024/02/08 11:02:40;;;;;;;5.70;2.40;;;;;;;15.58;28.59;99033.36;108343;1251;61372;-67
2024/02/08 11:07:59;;;;;;;4.10;2.40;;;;;;;15.32;28.70;99034.19;108038;1251;70022;-68
2024/02/08 11:10:33;;;;;;;5.10;2.40;;;;;;;15.29;28.53;99035.67;108336;1253;72324;-67
2024/02/08 11:13:10;;;;;;;4.10;2.60;;;;;;;15.31;28.56;99036.59;108224;1251;60398;-66
2024/02/08 11:15:42;;;;;;;4.60;2.60;;;;;;;15.34;28.68;99040.23;108386;1251;61062;-67
2024/02/08 11:18:33;;;;;;;3.80;2.40;;;;;;;15.19;28.72;99039.06;108341;1250;76047;-68
2024/02/08 11:21:04;;;;;;;2.90;1.90;;;;;;;14.97;28.73;99047.04;108366;1251;72130;-68
2024/02/08 11:23:32;;;;;;;3.60;2.60;;;;;;;14.84;29.25;99047.54;108350;1250;75077;-67
2024/02/08 11:26:06;;;;;;;4.50;2.40;;;;;;;14.84;29.24;99046.70;108312;1251;60313;-67
2024/02/08 11:28:47;;;;;;;4.10;2.40;;;;;;;15.16;28.91;99040.67;108270;1256;60276;-66
2024/02/08 11:31:17;;;;;;;5.60;3.30;;;;;;;15.53;29.03;99044.31;108328;1251;74928;-66
2024/02/08 11:33:45;;;;;;;4.20;2.30;;;;;;;15.42;28.14;99040.21;108286;1250;72320;-67
2024/02/08 11:36:16;;;;;;;4.30;2.50;;;;;;;14.97;28.52;99047.91;108209;1253;71690;-66
2024/02/08 11:38:53;;;;;;;3.80;2.40;;;;;;;14.50;29.26;99049.95;108263;1251;60386;-67
2024/02/08 11:41:25;;;;;;;3.50;2.30;;;;;;;14.30;29.66;99052.61;108271;1251;60360;-66
2024/02/08 11:44:03;;;;;;;4.40;2.80;;;;;;;14.45;29.91;99056.69;108227;1251;72717;-68
2024/02/08 11:46:37;;;;;;;3.40;2.20;;;;;;;14.73;29.46;99048.04;108269;1251;70475;-68
2024/02/08 11:49:14;;;;;;;3.90;2.30;;;;;;;14.69;28.60;99042.98;108323;1251;72446;-67
2024/02/08 11:51:46;;;;;;;3.50;2.50;;;;;;;14.75;29.04;99047.38;108261;1251;59724;-67
2024/02/08 11:54:28;;;;;;;4.40;2.80;;;;;;;14.73;28.88;99047.66;108090;1251;61012;-67
2024/02/08 11:57:03;;;;;;;4.90;2.60;;;;;;;14.83;29.02;99049.03;108233;1251;73801;-67
2024/02/08 11:59:37;;;;;;;4.10;2.70;;;;;;;14.81;28.83;99052.53;108205;1251;72549;-67
2024/02/08 12:02:08;;;;;;;4.10;2.70;;;;;;;14.53;29.01;99057.33;108227;1251;71464;-67
2024/02/08 12:04:36;;;;;;;3.60;2.60;;;;;;;14.37;28.87;99055.98;108274;1251;60365;-67
2024/02/08 12:07:06;;;;;;;4.60;3.00;;;;;;;14.23;29.50;99059.63;108276;1251;61882;-67
2024/02/08 12:09:34;;;;;;;3.90;2.10;;;;;;;14.19;29.61;99064.16;108347;1251;74607;-65
2024/02/08 12:12:03;;;;;;;4.00;2.70;;;;;;;14.15;30.05;99066.35;108335;1251;72042;-65
2024/02/08 12:14:31;;;;;;;4.00;2.80;;;;;;;14.02;29.78;99067.73;108265;1251;72718;-66
2024/02/08 12:16:59;;;;;;;3.60;2.50;;;;;;;13.80;29.53;99062.86;108120;1254;61440;-67
2024/02/08 12:19:30;;;;;;;3.20;2.40;;;;;;;13.56;29.99;99061.50;108174;1250;61246;-67
2024/02/08 12:22:03;;;;;;;4.90;2.70;;;;;;;13.33;30.05;99062.45;108276;1251;73911;-67
2024/02/08 12:24:32;;;;;;;5.20;2.40;;;;;;;13.26;30.26;99064.17;108290;1253;69358;-67
2024/02/08 12:27:07;;;;;;;5.70;3.00;;;;;;;13.24;30.40;99065.17;108279;1251;73286;-67
2024/02/08 12:29:42;;;;;;;3.00;2.10;;;;;;;13.13;30.43;99064.77;108213;1251;60411;-67
2024/02/08 12:32:16;;;;;;;4.00;2.70;;;;;;;13.15;30.52;99067.88;108272;1251;60421;-67
2024/02/08 12:34:47;;;;;;;4.30;2.60;;;;;;;12.98;30.39;99067.88;108362;1251;76057;-67
2024/02/08 12:37:17;;;;;;;3.80;2.40;;;;;;;12.82;30.33;99069.08;108291;1251;70484;-67
2024/02/08 12:39:45;;;;;;;4.00;2.60;;;;;;;12.77;30.97;99070.93;108468;1251;72494;-67
2024/02/08 12:42:14;;;;;;;3.50;2.70;;;;;;;12.70;30.82;99073.16;108412;1251;60409;-68
2024/02/08 12:44:48;;;;;;;3.00;2.20;;;;;;;12.56;30.80;99077.89;108382;1251;60198;-68
2024/02/08 12:47:17;;;;;;;3.10;2.10;;;;;;;12.45;30.95;99081.92;108388;1249;76096;-67
2024/02/08 12:49:46;;;;;;;3.20;2.30;;;;;;;12.09;30.82;99078.83;108347;1251;70659;-67
2024/02/08 12:52:16;;;;;;;3.20;2.40;;;;;;;11.92;31.21;99086.30;108350;1253;71841;-67
2024/02/08 12:54:54;;;;;;;4.80;2.80;;;;;;;11.79;31.49;99086.40;108326;1251;60329;-67
2024/02/08 12:57:23;;;;;;;3.10;2.20;;;;;;;11.62;31.65;99084.71;108251;1255;60437;-67
2024/02/08 13:00:08;;;;;;;4.80;2.60;;;;;;;11.65;32.01;99090.35;108287;1251;74099;-67
2024/02/08 13:02:36;;;;;;;3.60;2.20;;;;;;;11.75;32.14;99093.80;108386;1250;72651;-68
2024/02/08 13:05:03;;;;;;;3.90;2.30;;;;;;;11.84;31.71;99098.02;108322;1254;74957;-67
2024/02/08 13:07:32;;;;;;;3.40;2.20;;;;;;;11.79;31.84;99098.88;108302;1251;60341;-67
2024/02/08 13:10:14;;;;;;;3.30;2.20;;;;;;;11.61;31.44;99100.23;108301;1251;60401;-67
2024/02/08 13:12:43;;;;;;;3.20;2.00;;;;;;;11.42;31.26;99097.98;108321;1251;73910;-67
2024/02/08 13:15:20;;;;;;;4.30;2.20;;;;;;;11.34;32.10;99095.46;108355;1251;70638;-67
2024/02/08 13:17:50;;;;;;;2.80;2.10;;;;;;;11.14;31.90;99096.91;108253;1254;71440;-67
2024/02/08 13:20:21;;;;;;;3.20;2.00;;;;;;;11.05;32.52;99098.14;108317;1251;60443;-67
2024/02/08 13:22:51;;;;;;;3.00;2.00;;;;;;;10.92;32.94;99096.04;108346;1251;60220;-68
2024/02/08 13:25:19;;;;;;;3.20;2.40;;;;;;;10.84;32.54;99104.05;108318;1251;73624;-66
2024/02/08 13:27:50;;;;;;;3.70;2.60;;;;;;;10.72;32.53;99112.58;108302;1256;71371;-67
2024/02/08 13:30:19;;;;;;;2.70;2.20;;;;;;;10.56;32.32;99110.27;108359;1254;72561;-66
2024/02/08 13:32:51;;;;;;;2.70;2.20;;;;;;;10.36;32.25;99113.05;108357;1254;59531;-66
2024/02/08 13:35:22;;;;;;;3.90;2.40;;;;;;;10.21;33.24;99116.61;108196;1253;60389;-66
2024/02/08 13:37:52;;;;;;;2.90;2.00;;;;;;;10.00;33.24;99115.10;108078;1258;74034;-67
2024/02/08 13:40:24;;;;;;;5.30;2.10;;;;;;;9.92;33.36;99115.15;108228;1254;69349;-67
2024/02/08 13:42:56;;;;;;;2.80;2.10;;;;;;;9.87;33.68;99111.88;108142;1253;71783;-66
2024/02/08 13:45:25;;;;;;;4.00;2.40;;;;;;;9.78;33.49;99110.73;108280;1253;60319;-66
2024/02/08 13:47:55;;;;;;;3.70;2.10;;;;;;;9.90;34.06;99112.60;108264;1255;61332;-65
2024/02/08 13:50:28;;;;;;;;;;;;;;;9.92;33.88;99117.41;108304;1253;76044;-66
2024/02/08 13:53:01;;;;;;;3.70;2.30;;;;;;;10.01;33.60;99119.45;108325;1254;69686;-67
2024/02/08 13:55:34;;;;;;;10.90;2.50;;;;;;;9.99;33.51;99119.70;108310;1257;71610;-66
2024/02/08 13:58:06;;;;;;;4.60;2.40;;;;;;;9.88;33.38;99116.54;108295;1253;60517;-67
2024/02/08 14:00:35;;;;;;;;;;;;;;;9.69;33.52;99114.15;108317;1252;60303;-67
2024/02/08 14:03:07;;;;;;;4.60;2.40;;;;;;;9.55;33.54;99116.27;108256;1254;72972;-66
2024/02/08 14:05:39;;;;;;;3.00;2.10;;;;;;;9.57;33.73;99116.89;108252;1254;69521;-67